Time,TemperatureF,DewpointF,PressureIn,WindDirection,WindDirectionDegrees,WindSpeedMPH,WindSpeedGustMPH,Humidity,HourlyPrecipIn,Conditions,Clouds,dailyrainin,SolarRadiationWatts/m^2,SoftwareType,DateUTC
2013-03-23 00:02:00,19.7,15.4,30.13,North,350,0.0,1.0,83,0.00,,,0.00,0,Wunderground v.1.15,2013-03-23 05:02:00,
2013-03-23 00:09:00,20.1,15.2,30.13,North,350,0.0,2.0,81,0.00,,,0.00,0,Wunderground v.1.15,2013-03-23 05:09:00,
2013-03-23 00:14:00,19.2,14.6,30.13,North,350,0.0,0.0,82,0.00,,,0.00,0,Wunderground v.1.15,2013-03-23 05:14:00,
2013-03-23 00:20:00,19.2,14.9,30.13,North,350,0.0,0.0,83,0.00,,,0.00,0,Wunderground v.1.15,2013-03-23 05:20:00,
2013-03-23 00:25:00,19.2,14.6,30.13,North,350,0.0,0.0,82,0.00,,,0.00,0,Wunderground v.1.15,2013-03-23 05:25:00,
2013-03-23 00:31:00,19.0,14.4,30.13,North,350,0.0,0.0,82,0.00,,,0.00,0,Wunderground v.1.15,2013-03-23 05:31:00,
2013-03-23 00:36:00,18.5,14.2,30.13,North,350,0.0,0.0,83,0.00,,,0.00,0,Wunderground v.1.15,2013-03-23 05:36:00,
2013-03-23 00:42:00,18.6,14.6,30.13,North,350,0.0,2.0,84,0.00,,,0.00,0,Wunderground v.1.15,2013-03-23 05:42:00,
2013-03-23 00:49:00,18.8,15.0,30.13,North,350,0.0,2.0,85,0.00,,,0.00,0,Wunderground v.1.15,2013-03-23 05:49:00,
2013-03-23 00:55:00,18.9,15.4,30.13,North,350,0.0,2.0,86,0.00,,,0.00,0,Wunderground v.1.15,2013-03-23 05:55:00,
2013-03-23 01:01:00,18.9,15.4,30.13,North,350,0.0,0.0,86,0.00,,,0.00,0,Wunderground v.1.15,2013-03-23 06:01:00,
2013-03-23 01:06:00,19.1,15.3,30.13,North,350,0.0,0.0,85,0.00,,,0.00,0,Wunderground v.1.15,2013-03-23 06:06:00,
2013-03-23 01:12:00,19.2,15.4,30.13,North,350,0.0,1.0,85,0.00,,,0.00,0,Wunderground v.1.15,2013-03-23 06:12:00,
2013-03-23 01:19:00,19.3,15.5,30.13,North,350,0.0,1.0,85,0.00,,,0.00,0,Wunderground v.1.15,2013-03-23 06:19:00,
2013-03-23 01:24:00,19.1,15.1,30.13,North,350,0.0,0.0,84,0.00,,,0.00,0,Wunderground v.1.15,2013-03-23 06:24:00,
2013-03-23 01:30:00,19.1,15.3,30.13,North,350,0.0,0.0,85,0.00,,,0.00,0,Wunderground v.1.15,2013-03-23 06:30:00,
2013-03-23 01:35:00,19.3,15.3,30.13,North,350,0.0,0.0,84,0.00,,,0.00,0,Wunderground v.1.15,2013-03-23 06:35:00,
2013-03-23 01:41:00,19.1,15.1,30.13,North,350,0.0,0.0,84,0.00,,,0.00,0,Wunderground v.1.15,2013-03-23 06:41:00,
2013-03-23 01:46:00,19.2,15.4,30.13,North,350,0.0,0.0,85,0.00,,,0.00,0,Wunderground v.1.15,2013-03-23 06:46:00,
2013-03-23 01:52:00,18.9,15.1,30.13,North,350,0.0,0.0,85,0.00,,,0.00,0,Wunderground v.1.15,2013-03-23 06:52:00,
2013-03-23 01:59:00,18.8,15.3,30.13,North,350,0.0,0.0,86,0.00,,,0.00,0,Wunderground v.1.15,2013-03-23 06:59:00,
2013-03-23 02:04:00,18.8,15.3,30.13,North,350,0.0,0.0,86,0.00,,,0.00,0,Wunderground v.1.15,2013-03-23 07:04:00,
2013-03-23 02:09:00,18.7,15.5,30.13,North,350,0.0,0.0,87,0.00,,,0.00,0,Wunderground v.1.15,2013-03-23 07:09:00,
2013-03-23 02:15:00,18.3,14.8,30.13,North,350,0.0,0.0,86,0.00,,,0.00,0,Wunderground v.1.15,2013-03-23 07:15:00,
2013-03-23 02:20:00,18.5,15.3,30.13,North,350,0.0,0.0,87,0.00,,,0.00,0,Wunderground v.1.15,2013-03-23 07:20:00,
2013-03-23 02:25:00,18.4,14.9,30.13,North,350,0.0,0.0,86,0.00,,,0.00,0,Wunderground v.1.15,2013-03-23 07:25:00,
2013-03-23 02:30:00,18.2,14.7,30.13,North,350,0.0,0.0,86,0.00,,,0.00,0,Wunderground v.1.15,2013-03-23 07:30:00,
2013-03-23 02:36:00,18.3,14.5,30.13,North,350,0.0,0.0,85,0.00,,,0.00,0,Wunderground v.1.15,2013-03-23 07:36:00,
2013-03-23 02:41:00,18.1,14.4,30.13,North,350,0.0,0.0,85,0.00,,,0.00,0,Wunderground v.1.15,2013-03-23 07:41:00,
2013-03-23 02:46:00,18.2,14.7,30.13,North,350,0.0,0.0,86,0.00,,,0.00,0,Wunderground v.1.15,2013-03-23 07:46:00,
2013-03-23 02:52:00,18.3,14.8,30.13,North,350,0.0,0.0,86,0.00,,,0.00,0,Wunderground v.1.15,2013-03-23 07:52:00,
2013-03-23 02:59:00,18.6,15.4,30.13,North,350,0.0,0.0,87,0.00,,,0.00,0,Wunderground v.1.15,2013-03-23 07:59:00,
2013-03-23 03:04:00,18.7,15.2,30.13,North,350,0.0,0.0,86,0.00,,,0.00,0,Wunderground v.1.15,2013-03-23 08:04:00,
2013-03-23 03:09:00,18.8,15.0,30.13,North,350,0.0,0.0,85,0.00,,,0.00,0,Wunderground v.1.15,2013-03-23 08:09:00,
2013-03-23 03:15:00,18.8,15.0,30.13,North,350,0.0,0.0,85,0.00,,,0.00,0,Wunderground v.1.15,2013-03-23 08:15:00,
2013-03-23 03:21:00,18.7,14.9,30.13,North,350,0.0,0.0,85,0.00,,,0.00,0,Wunderground v.1.15,2013-03-23 08:21:00,
2013-03-23 03:26:00,18.6,14.8,30.13,North,350,0.0,0.0,85,0.00,,,0.00,0,Wunderground v.1.15,2013-03-23 08:26:00,
2013-03-23 03:31:00,18.7,15.2,30.13,North,350,0.0,0.0,86,0.00,,,0.00,0,Wunderground v.1.15,2013-03-23 08:31:00,
2013-03-23 03:36:00,18.8,15.0,30.13,North,350,0.0,0.0,85,0.00,,,0.00,0,Wunderground v.1.15,2013-03-23 08:36:00,
2013-03-23 03:42:00,18.8,15.0,30.13,North,350,0.0,0.0,85,0.00,,,0.00,0,Wunderground v.1.15,2013-03-23 08:42:00,
2013-03-23 03:49:00,18.8,15.0,30.13,North,350,0.0,0.0,85,0.00,,,0.00,0,Wunderground v.1.15,2013-03-23 08:49:00,
2013-03-23 03:54:00,18.7,14.9,30.13,North,350,0.0,0.0,85,0.00,,,0.00,0,Wunderground v.1.15,2013-03-23 08:54:00,
2013-03-23 04:00:00,18.7,14.9,30.13,North,350,0.0,0.0,85,0.00,,,0.00,0,Wunderground v.1.15,2013-03-23 09:00:00,
2013-03-23 04:06:00,18.6,14.8,30.13,North,350,0.0,0.0,85,0.00,,,0.00,0,Wunderground v.1.15,2013-03-23 09:06:00,
2013-03-23 04:12:00,18.3,14.5,30.13,North,350,0.0,0.0,85,0.00,,,0.00,0,Wunderground v.1.15,2013-03-23 09:12:00,
2013-03-23 04:19:00,18.0,14.5,30.13,North,350,0.0,0.0,86,0.00,,,0.00,0,Wunderground v.1.15,2013-03-23 09:19:00,
2013-03-23 04:24:00,18.1,14.6,30.13,North,350,0.0,0.0,86,0.00,,,0.00,0,Wunderground v.1.15,2013-03-23 09:24:00,
2013-03-23 04:29:00,18.2,15.0,30.13,North,350,0.0,0.0,87,0.00,,,0.00,0,Wunderground v.1.15,2013-03-23 09:29:00,
2013-03-23 04:34:00,17.8,14.6,30.13,North,350,0.0,0.0,87,0.00,,,0.00,0,Wunderground v.1.15,2013-03-23 09:34:00,
2013-03-23 04:40:00,17.8,14.3,30.13,North,350,0.0,0.0,86,0.00,,,0.00,0,Wunderground v.1.15,2013-03-23 09:40:00,
2013-03-23 04:46:00,17.8,14.3,30.13,North,350,0.0,0.0,86,0.00,,,0.00,0,Wunderground v.1.15,2013-03-23 09:46:00,
2013-03-23 04:51:00,17.9,14.4,30.13,North,350,0.0,0.0,86,0.00,,,0.00,0,Wunderground v.1.15,2013-03-23 09:51:00,
2013-03-23 04:57:00,17.9,14.4,30.13,North,350,0.0,0.0,86,0.00,,,0.00,0,Wunderground v.1.15,2013-03-23 09:57:00,
2013-03-23 05:04:00,17.9,14.2,30.13,North,350,0.0,0.0,85,0.00,,,0.00,0,Wunderground v.1.15,2013-03-23 10:04:00,
2013-03-23 05:11:00,17.9,14.2,30.13,North,350,0.0,0.0,85,0.00,,,0.00,0,Wunderground v.1.15,2013-03-23 10:11:00,
2013-03-23 05:16:00,17.7,14.2,30.13,North,350,0.0,0.0,86,0.00,,,0.00,0,Wunderground v.1.15,2013-03-23 10:16:00,
2013-03-23 05:22:00,17.7,14.2,30.13,North,350,0.0,0.0,86,0.00,,,0.00,0,Wunderground v.1.15,2013-03-23 10:22:00,
2013-03-23 05:29:00,17.7,14.5,30.13,North,350,0.0,0.0,87,0.00,,,0.00,0,Wunderground v.1.15,2013-03-23 10:29:00,
2013-03-23 05:34:00,17.7,14.8,30.13,North,350,0.0,0.0,88,0.00,,,0.00,0,Wunderground v.1.15,2013-03-23 10:34:00,
2013-03-23 05:39:00,17.8,14.8,30.13,North,350,0.0,0.0,88,0.00,,,0.00,0,Wunderground v.1.15,2013-03-23 10:39:00,
2013-03-23 05:44:00,17.9,14.9,30.13,North,350,0.0,0.0,88,0.00,,,0.00,0,Wunderground v.1.15,2013-03-23 10:44:00,
2013-03-23 05:51:00,17.9,14.7,30.13,North,350,0.0,0.0,87,0.00,,,0.00,0,Wunderground v.1.15,2013-03-23 10:51:00,
2013-03-23 05:56:00,18.0,14.8,30.13,North,350,0.0,0.0,87,0.00,,,0.00,0,Wunderground v.1.15,2013-03-23 10:56:00,
2013-03-23 06:04:00,17.8,14.6,30.13,North,350,0.0,0.0,87,0.00,,,0.00,0,Wunderground v.1.15,2013-03-23 11:04:00,
2013-03-23 06:09:00,17.7,14.5,30.13,North,350,0.0,0.0,87,0.00,,,0.00,0,Wunderground v.1.15,2013-03-23 11:09:00,
2013-03-23 06:15:00,17.8,14.8,30.14,North,350,0.0,0.0,88,0.00,,,0.00,0,Wunderground v.1.15,2013-03-23 11:15:00,
2013-03-23 06:21:00,17.9,14.9,30.14,North,350,0.0,0.0,88,0.00,,,0.00,0,Wunderground v.1.15,2013-03-23 11:21:00,
2013-03-23 06:26:00,17.8,14.8,30.14,North,350,0.0,0.0,88,0.00,,,0.00,0,Wunderground v.1.15,2013-03-23 11:26:00,
2013-03-23 06:32:00,17.9,14.9,30.15,North,350,0.0,0.0,88,0.00,,,0.00,0,Wunderground v.1.15,2013-03-23 11:32:00,
2013-03-23 06:39:00,17.9,14.9,30.15,North,350,0.0,0.0,88,0.00,,,0.00,0,Wunderground v.1.15,2013-03-23 11:39:00,
2013-03-23 06:45:00,17.5,14.6,30.16,North,350,0.0,0.0,88,0.00,,,0.00,0,Wunderground v.1.15,2013-03-23 11:45:00,
2013-03-23 06:51:00,17.5,14.6,30.16,North,350,0.0,0.0,88,0.00,,,0.00,0,Wunderground v.1.15,2013-03-23 11:51:00,
2013-03-23 06:56:00,17.3,14.6,30.16,North,350,0.0,0.0,89,0.00,,,0.00,0,Wunderground v.1.15,2013-03-23 11:56:00,
2013-03-23 07:01:00,17.2,14.5,30.15,North,350,0.0,0.0,89,0.00,,,0.00,5,Wunderground v.1.15,2013-03-23 12:01:00,
2013-03-23 07:06:00,17.0,14.1,30.15,North,350,0.0,0.0,88,0.00,,,0.00,9,Wunderground v.1.15,2013-03-23 12:06:00,
2013-03-23 07:14:00,17.0,14.3,30.15,North,350,0.0,0.0,89,0.00,,,0.00,12,Wunderground v.1.15,2013-03-23 12:14:00,
2013-03-23 07:20:00,17.0,14.3,30.16,North,350,0.0,0.0,89,0.00,,,0.00,16,Wunderground v.1.15,2013-03-23 12:20:00,
2013-03-23 07:25:00,16.9,14.2,30.16,North,350,0.0,0.0,89,0.00,,,0.00,21,Wunderground v.1.15,2013-03-23 12:25:00,
2013-03-23 07:30:00,16.6,13.9,30.16,North,350,0.0,0.0,89,0.00,,,0.00,33,Wunderground v.1.15,2013-03-23 12:30:00,
2013-03-23 07:35:00,17.0,14.3,30.16,North,350,0.0,0.0,89,0.00,,,0.00,28,Wunderground v.1.15,2013-03-23 12:35:00,
2013-03-23 07:41:00,17.3,14.6,30.16,North,350,0.0,0.0,89,0.00,,,0.00,47,Wunderground v.1.15,2013-03-23 12:41:00,
2013-03-23 07:46:00,17.3,14.6,30.16,North,350,0.0,0.0,89,0.00,,,0.00,39,Wunderground v.1.15,2013-03-23 12:46:00,
2013-03-23 07:52:00,17.2,14.5,30.16,North,350,0.0,0.0,89,0.00,,,0.00,53,Wunderground v.1.15,2013-03-23 12:52:00,
2013-03-23 08:03:00,17.4,14.5,30.16,North,350,0.0,0.0,88,0.00,,,0.00,39,Wunderground v.1.15,2013-03-23 13:03:00,
2013-03-23 08:09:00,17.9,14.9,30.16,North,350,0.0,1.0,88,0.00,,,0.00,62,Wunderground v.1.15,2013-03-23 13:09:00,
2013-03-23 08:15:00,19.0,15.8,30.17,North,350,0.0,2.0,87,0.00,,,0.00,137,Wunderground v.1.15,2013-03-23 13:15:00,
2013-03-23 08:21:00,20.1,16.9,30.17,North,350,1.0,2.0,87,0.00,,,0.00,218,Wunderground v.1.15,2013-03-23 13:21:00,
2013-03-23 08:26:00,20.9,17.6,30.17,North,350,1.0,1.0,87,0.00,,,0.00,295,Wunderground v.1.15,2013-03-23 13:26:00,
2013-03-23 08:34:00,21.7,18.2,30.17,North,350,0.0,0.0,86,0.00,,,0.00,308,Wunderground v.1.15,2013-03-23 13:34:00,
2013-03-23 08:41:00,22.2,18.7,30.17,North,350,0.0,0.0,86,0.00,,,0.00,330,Wunderground v.1.15,2013-03-23 13:41:00,
2013-03-23 08:46:00,23.0,18.9,30.19,North,350,0.0,2.0,84,0.00,,,0.00,348,Wunderground v.1.15,2013-03-23 13:46:00,
2013-03-23 08:52:00,24.6,19.9,30.19,North,350,1.0,2.0,82,0.00,,,0.00,367,Wunderground v.1.15,2013-03-23 13:52:00,
2013-03-23 08:59:00,26.4,19.5,30.19,North,350,0.0,1.0,75,0.00,,,0.00,390,Wunderground v.1.15,2013-03-23 13:59:00,
2013-03-23 09:04:00,27.8,19.9,30.19,North,350,0.0,0.0,72,0.00,,,0.00,401,Wunderground v.1.15,2013-03-23 14:04:00,
2013-03-23 09:09:00,29.0,20.1,30.19,North,350,0.0,0.0,69,0.00,,,0.00,418,Wunderground v.1.15,2013-03-23 14:09:00,
2013-03-23 09:15:00,29.9,19.9,30.19,North,350,0.0,0.0,66,0.00,,,0.00,438,Wunderground v.1.15,2013-03-23 14:15:00,
2013-03-23 09:21:00,30.1,19.7,30.19,North,350,0.0,1.0,65,0.00,,,0.00,452,Wunderground v.1.15,2013-03-23 14:21:00,
2013-03-23 09:26:00,30.2,19.5,30.19,North,350,0.0,1.0,64,0.00,,,0.00,469,Wunderground v.1.15,2013-03-23 14:26:00,
2013-03-23 09:31:00,30.5,19.4,30.19,North,350,0.0,0.0,63,0.00,,,0.00,485,Wunderground v.1.15,2013-03-23 14:31:00,
2013-03-23 09:39:00,30.9,19.0,30.19,North,350,1.0,3.0,61,0.00,,,0.00,508,Wunderground v.1.15,2013-03-23 14:39:00,
2013-03-23 09:44:00,31.0,18.7,30.18,North,350,2.0,4.0,60,0.00,,,0.00,524,Wunderground v.1.15,2013-03-23 14:44:00,
2013-03-23 09:50:00,31.2,18.9,30.18,NNW,340,2.0,4.0,60,0.00,,,0.00,541,Wunderground v.1.15,2013-03-23 14:50:00,
2013-03-23 09:55:00,31.3,18.6,30.18,NNW,340,3.0,4.0,59,0.00,,,0.00,555,Wunderground v.1.15,2013-03-23 14:55:00,
2013-03-23 10:00:00,31.6,18.5,30.17,NNW,340,3.0,3.0,58,0.00,,,0.00,568,Wunderground v.1.15,2013-03-23 15:00:00,
2013-03-23 10:06:00,31.7,19.0,30.17,NNW,340,2.0,3.0,59,0.00,,,0.00,582,Wunderground v.1.15,2013-03-23 15:06:00,
2013-03-23 10:11:00,32.0,19.7,30.17,NNW,335,3.0,6.0,60,0.00,,,0.00,596,Wunderground v.1.15,2013-03-23 15:11:00,
2013-03-23 10:19:00,32.6,18.6,30.17,NE,53,5.0,7.0,56,0.00,,,0.00,617,Wunderground v.1.15,2013-03-23 15:19:00,
2013-03-23 10:24:00,33.6,18.7,30.17,NNE,19,5.0,8.0,54,0.00,,,0.00,631,Wunderground v.1.15,2013-03-23 15:24:00,
2013-03-23 10:30:00,34.0,18.6,30.17,North,355,5.0,8.0,53,0.00,,,0.00,647,Wunderground v.1.15,2013-03-23 15:30:00,
2013-03-23 10:35:00,33.3,18.0,30.17,NNW,346,4.0,5.0,53,0.00,,,0.00,656,Wunderground v.1.15,2013-03-23 15:35:00,
2013-03-23 10:41:00,33.6,18.3,30.17,North,5,4.0,10.0,53,0.00,,,0.00,670,Wunderground v.1.15,2013-03-23 15:41:00,
2013-03-23 10:46:00,33.4,18.5,30.18,NNW,327,4.0,10.0,54,0.00,,,0.00,687,Wunderground v.1.15,2013-03-23 15:46:00,
2013-03-23 10:54:00,33.4,18.9,30.18,NNE,20,3.0,5.0,55,0.00,,,0.00,703,Wunderground v.1.15,2013-03-23 15:54:00,
2013-03-23 11:00:00,33.7,18.8,30.18,NW,305,3.0,5.0,54,0.00,,,0.00,719,Wunderground v.1.15,2013-03-23 16:00:00,
2013-03-23 11:05:00,34.2,19.3,30.18,North,5,1.0,3.0,54,0.00,,,0.00,752,Wunderground v.1.15,2013-03-23 16:05:00,
2013-03-23 11:11:00,35.3,19.0,30.18,SE,138,1.0,1.0,51,0.00,,,0.00,789,Wunderground v.1.15,2013-03-23 16:11:00,
2013-03-23 11:16:00,34.2,19.3,30.18,SSW,212,1.0,3.0,54,0.00,,,0.00,773,Wunderground v.1.15,2013-03-23 16:16:00,
2013-03-23 11:22:00,34.5,19.5,30.18,SSW,213,1.0,3.0,54,0.00,,,0.00,823,Wunderground v.1.15,2013-03-23 16:22:00,
2013-03-23 11:29:00,34.1,18.3,30.18,NNW,329,2.0,3.0,52,0.00,,,0.00,800,Wunderground v.1.15,2013-03-23 16:29:00,
2013-03-23 11:34:00,34.6,18.3,30.17,NNW,329,3.0,7.0,51,0.00,,,0.00,777,Wunderground v.1.15,2013-03-23 16:34:00,
2013-03-23 11:39:00,35.1,19.2,30.17,NE,55,2.0,7.0,52,0.00,,,0.00,860,Wunderground v.1.15,2013-03-23 16:39:00,
2013-03-23 11:45:00,35.5,19.1,30.17,NNE,20,1.0,7.0,51,0.00,,,0.00,905,Wunderground v.1.15,2013-03-23 16:45:00,
2013-03-23 11:51:00,34.6,18.3,30.17,WSW,255,1.0,2.0,51,0.00,,,0.00,202,Wunderground v.1.15,2013-03-23 16:51:00,
2013-03-23 11:56:00,34.6,18.3,30.17,WNW,299,1.0,4.0,51,0.00,,,0.00,865,Wunderground v.1.15,2013-03-23 16:56:00,
2013-03-23 12:01:00,36.1,19.2,30.17,NNW,333,2.0,7.0,50,0.00,,,0.00,896,Wunderground v.1.15,2013-03-23 17:01:00,
2013-03-23 12:06:00,35.4,18.6,30.17,North,355,3.0,9.0,50,0.00,,,0.00,928,Wunderground v.1.15,2013-03-23 17:06:00,
2013-03-23 12:12:00,34.9,18.1,30.17,North,11,4.0,9.0,50,0.00,,,0.00,918,Wunderground v.1.15,2013-03-23 17:12:00,
2013-03-23 12:19:00,34.7,17.9,30.17,North,5,4.0,9.0,50,0.00,,,0.00,309,Wunderground v.1.15,2013-03-23 17:19:00,
2013-03-23 12:24:00,34.7,17.9,30.17,North,5,3.0,4.0,50,0.00,,,0.00,237,Wunderground v.1.15,2013-03-23 17:24:00,
2013-03-23 12:30:00,34.8,18.0,30.17,North,5,2.0,6.0,50,0.00,,,0.00,225,Wunderground v.1.15,2013-03-23 17:30:00,
2013-03-23 12:36:00,34.6,18.3,30.17,WSW,248,2.0,4.0,51,0.00,,,0.00,227,Wunderground v.1.15,2013-03-23 17:36:00,
2013-03-23 12:44:00,35.2,18.4,30.17,WSW,248,1.0,2.0,50,0.00,,,0.00,937,Wunderground v.1.15,2013-03-23 17:44:00,
2013-03-23 12:49:00,35.6,19.2,30.17,WNW,301,1.0,5.0,51,0.00,,,0.00,958,Wunderground v.1.15,2013-03-23 17:49:00,
2013-03-23 12:54:00,35.7,18.9,30.17,NE,40,4.0,11.0,50,0.00,,,0.00,448,Wunderground v.1.15,2013-03-23 17:54:00,
2013-03-23 13:00:00,36.3,18.9,30.16,NNE,24,4.0,4.0,49,0.00,,,0.00,257,Wunderground v.1.15,2013-03-23 18:00:00,
2013-03-23 13:05:00,37.7,19.3,30.16,East,84,3.0,6.0,47,0.00,,,0.00,838,Wunderground v.1.15,2013-03-23 18:05:00,
2013-03-23 13:11:00,38.5,18.4,30.16,ENE,58,2.0,5.0,44,0.00,,,0.00,844,Wunderground v.1.15,2013-03-23 18:11:00,
2013-03-23 13:17:00,39.0,19.9,30.15,East,80,3.0,5.0,46,0.00,,,0.00,830,Wunderground v.1.15,2013-03-23 18:17:00,
2013-03-23 13:22:00,38.8,19.2,30.15,ENE,66,4.0,6.0,45,0.00,,,0.00,835,Wunderground v.1.15,2013-03-23 18:22:00,
2013-03-23 13:29:00,38.7,19.7,30.15,East,94,4.0,10.0,46,0.00,,,0.00,807,Wunderground v.1.15,2013-03-23 18:29:00,
2013-03-23 13:35:00,37.7,17.7,30.15,SSE,160,3.0,7.0,44,0.00,,,0.00,817,Wunderground v.1.15,2013-03-23 18:35:00,
2013-03-23 13:41:00,38.0,18.5,30.15,ENE,70,2.0,4.0,45,0.00,,,0.00,814,Wunderground v.1.15,2013-03-23 18:41:00,
2013-03-23 13:46:00,37.9,18.9,30.14,NE,35,2.0,6.0,46,0.00,,,0.00,814,Wunderground v.1.15,2013-03-23 18:46:00,
2013-03-23 13:52:00,37.2,17.8,30.14,North,5,5.0,12.0,45,0.00,,,0.00,807,Wunderground v.1.15,2013-03-23 18:52:00,
2013-03-23 13:59:00,36.4,18.1,30.15,NW,321,6.0,12.0,47,0.00,,,0.00,809,Wunderground v.1.15,2013-03-23 18:59:00,
2013-03-23 14:05:00,36.2,19.3,30.15,NW,321,3.0,5.0,50,0.00,,,0.00,810,Wunderground v.1.15,2013-03-23 19:05:00,
2013-03-23 14:11:00,36.6,18.2,30.15,NW,312,2.0,2.0,47,0.00,,,0.00,810,Wunderground v.1.15,2013-03-23 19:11:00,
2013-03-23 14:16:00,36.6,17.7,30.14,NNW,333,3.0,7.0,46,0.00,,,0.00,791,Wunderground v.1.15,2013-03-23 19:16:00,
2013-03-23 14:24:00,36.7,18.8,30.14,NW,307,3.0,5.0,48,0.00,,,0.00,793,Wunderground v.1.15,2013-03-23 19:24:00,
2013-03-23 14:29:00,36.7,17.8,30.14,NW,310,3.0,6.0,46,0.00,,,0.00,784,Wunderground v.1.15,2013-03-23 19:29:00,
2013-03-23 14:34:00,37.0,17.6,30.14,North,355,3.0,7.0,45,0.00,,,0.00,817,Wunderground v.1.15,2013-03-23 19:34:00,
2013-03-23 14:39:00,37.4,17.4,30.14,North,355,2.0,7.0,44,0.00,,,0.00,819,Wunderground v.1.15,2013-03-23 19:39:00,
2013-03-23 14:45:00,37.0,17.6,30.14,WSW,246,2.0,4.0,45,0.00,,,0.00,810,Wunderground v.1.15,2013-03-23 19:45:00,
2013-03-23 14:51:00,37.0,17.6,30.14,WNW,282,3.0,3.0,45,0.00,,,0.00,761,Wunderground v.1.15,2013-03-23 19:51:00,
2013-03-23 14:56:00,37.2,17.8,30.14,NNW,339,4.0,6.0,45,0.00,,,0.00,791,Wunderground v.1.15,2013-03-23 19:56:00,
2013-03-23 15:01:00,37.8,18.8,30.13,ENE,69,5.0,9.0,46,0.00,,,0.00,793,Wunderground v.1.15,2013-03-23 20:01:00,
2013-03-23 15:09:00,39.2,18.0,30.13,NE,36,5.0,14.0,42,0.00,,,0.00,682,Wunderground v.1.15,2013-03-23 20:09:00,
2013-03-23 15:14:00,38.7,18.6,30.13,SE,135,2.0,4.0,44,0.00,,,0.00,434,Wunderground v.1.15,2013-03-23 20:14:00,
2013-03-23 15:20:00,39.2,19.1,30.13,ENE,70,1.0,4.0,44,0.00,,,0.00,251,Wunderground v.1.15,2013-03-23 20:20:00,
2013-03-23 15:25:00,39.5,18.8,30.13,ENE,70,1.0,3.0,43,0.00,,,0.00,274,Wunderground v.1.15,2013-03-23 20:25:00,
2013-03-23 15:31:00,39.5,17.7,30.13,East,86,1.0,5.0,41,0.00,,,0.00,290,Wunderground v.1.15,2013-03-23 20:31:00,
2013-03-23 15:36:00,39.5,17.7,30.13,ENE,63,1.0,5.0,41,0.00,,,0.00,322,Wunderground v.1.15,2013-03-23 20:36:00,
2013-03-23 15:44:00,38.4,17.3,30.13,NNE,30,1.0,2.0,42,0.00,,,0.00,350,Wunderground v.1.15,2013-03-23 20:44:00,
2013-03-23 15:52:00,38.8,21.7,30.13,ESE,114,3.0,10.0,50,0.00,,,0.00,441,Wunderground v.1.15,2013-03-23 20:52:00,
2013-03-23 15:59:00,39.3,21.7,30.13,ENE,67,3.0,10.0,49,0.00,,,0.00,441,Wunderground v.1.15,2013-03-23 20:59:00,
2013-03-23 16:04:00,39.2,23.5,30.12,ESE,110,3.0,8.0,53,0.00,,,0.00,490,Wunderground v.1.15,2013-03-23 21:04:00,
2013-03-23 16:11:00,39.2,23.0,30.12,East,93,3.0,8.0,52,0.00,,,0.00,469,Wunderground v.1.15,2013-03-23 21:11:00,
2013-03-23 16:16:00,38.4,22.7,30.12,East,100,5.0,10.0,53,0.00,,,0.00,362,Wunderground v.1.15,2013-03-23 21:16:00,
2013-03-23 16:22:00,38.0,23.7,30.12,East,98,6.0,11.0,56,0.00,,,0.00,536,Wunderground v.1.15,2013-03-23 21:22:00,
2013-03-23 16:29:00,39.8,24.9,30.12,SE,135,3.0,11.0,55,0.00,,,0.00,682,Wunderground v.1.15,2013-03-23 21:29:00,
2013-03-23 16:35:00,39.6,23.9,30.12,East,96,2.0,6.0,53,0.00,,,0.00,350,Wunderground v.1.15,2013-03-23 21:35:00,
2013-03-23 16:40:00,38.4,23.6,30.12,ESE,114,4.0,9.0,55,0.00,,,0.00,241,Wunderground v.1.15,2013-03-23 21:40:00,
2013-03-23 16:45:00,37.6,24.6,30.12,East,89,4.0,8.0,59,0.00,,,0.00,193,Wunderground v.1.15,2013-03-23 21:45:00,
2013-03-23 16:52:00,37.0,24.8,30.12,SSE,157,3.0,8.0,61,0.00,,,0.00,130,Wunderground v.1.15,2013-03-23 21:52:00,
2013-03-23 16:59:00,36.1,25.1,30.12,ESE,116,4.0,8.0,64,0.00,,,0.00,116,Wunderground v.1.15,2013-03-23 21:59:00,
2013-03-23 17:04:00,36.0,25.0,30.12,ESE,118,2.0,7.0,64,0.00,,,0.00,109,Wunderground v.1.15,2013-03-23 22:04:00,
2013-03-23 17:10:00,35.6,25.0,30.12,East,92,3.0,3.0,65,0.00,,,0.00,107,Wunderground v.1.15,2013-03-23 22:10:00,
2013-03-23 17:15:00,35.7,25.1,30.12,ENE,76,3.0,7.0,65,0.00,,,0.00,105,Wunderground v.1.15,2013-03-23 22:15:00,
2013-03-23 17:21:00,35.6,24.6,30.12,East,80,2.0,3.0,64,0.00,,,0.00,104,Wunderground v.1.15,2013-03-23 22:21:00,
2013-03-23 17:27:00,35.4,24.4,30.12,ENE,63,2.0,4.0,64,0.00,,,0.00,90,Wunderground v.1.15,2013-03-23 22:27:00,
2013-03-23 17:34:00,35.2,24.6,30.11,East,91,3.0,3.0,65,0.00,,,0.00,79,Wunderground v.1.15,2013-03-23 22:34:00,
2013-03-23 17:40:00,35.1,24.9,30.11,East,89,2.0,6.0,66,0.00,,,0.00,63,Wunderground v.1.15,2013-03-23 22:40:00,
2013-03-23 17:45:00,35.0,24.8,30.11,East,82,2.0,6.0,66,0.00,,,0.00,51,Wunderground v.1.15,2013-03-23 22:45:00,
2013-03-23 17:51:00,34.6,25.1,30.11,East,83,3.0,4.0,68,0.00,,,0.00,44,Wunderground v.1.15,2013-03-23 22:51:00,
2013-03-23 17:56:00,34.3,24.8,30.11,ENE,61,2.0,7.0,68,0.00,,,0.00,37,Wunderground v.1.15,2013-03-23 22:56:00,
2013-03-23 18:01:00,34.1,25.0,30.11,East,82,3.0,6.0,69,0.00,,,0.00,28,Wunderground v.1.15,2013-03-23 23:01:00,
2013-03-23 18:09:00,33.8,25.0,30.11,ENE,65,3.0,9.0,70,0.00,,,0.00,26,Wunderground v.1.15,2013-03-23 23:09:00,
2013-03-23 18:14:00,33.7,25.0,30.11,ENE,76,2.0,5.0,70,0.00,,,0.00,25,Wunderground v.1.15,2013-03-23 23:14:00,
2013-03-23 18:21:00,33.5,25.1,30.11,ENE,73,2.0,2.0,71,0.00,,,0.00,25,Wunderground v.1.15,2013-03-23 23:21:00,
2013-03-23 18:27:00,33.4,25.0,30.11,East,94,2.0,5.0,71,0.00,,,0.00,23,Wunderground v.1.15,2013-03-23 23:27:00,
2013-03-23 18:34:00,33.3,24.9,30.10,East,95,2.0,6.0,71,0.00,,,0.00,21,Wunderground v.1.15,2013-03-23 23:34:00,
2013-03-23 18:39:00,33.1,25.1,30.10,East,92,2.0,6.0,72,0.00,,,0.00,18,Wunderground v.1.15,2013-03-23 23:39:00,
2013-03-23 18:45:00,33.0,25.0,30.10,ESE,104,2.0,5.0,72,0.00,,,0.00,14,Wunderground v.1.15,2013-03-23 23:45:00,
2013-03-23 18:51:00,32.9,24.9,30.10,ENE,76,2.0,2.0,72,0.00,,,0.00,9,Wunderground v.1.15,2013-03-23 23:51:00,
2013-03-23 18:59:00,32.6,24.9,30.10,East,92,1.0,7.0,73,0.00,,,0.00,0,Wunderground v.1.15,2013-03-23 23:59:00,
2013-03-23 19:04:00,32.5,24.8,30.10,East,82,2.0,2.0,73,0.00,,,0.00,0,Wunderground v.1.15,2013-03-24 00:04:00,
2013-03-23 19:11:00,32.4,24.7,30.10,East,82,2.0,2.0,73,0.00,,,0.00,0,Wunderground v.1.15,2013-03-24 00:11:00,
2013-03-23 19:16:00,32.3,24.6,30.11,East,90,2.0,5.0,73,0.00,,,0.00,0,Wunderground v.1.15,2013-03-24 00:16:00,
2013-03-23 19:21:00,32.3,24.9,30.11,East,86,1.0,1.0,74,0.00,,,0.00,0,Wunderground v.1.15,2013-03-24 00:21:00,
2013-03-23 19:27:00,32.2,24.8,30.11,East,97,2.0,6.0,74,0.00,,,0.00,0,Wunderground v.1.15,2013-03-24 00:27:00,
2013-03-23 19:34:00,32.0,25.0,30.11,ESE,106,1.0,3.0,75,0.00,,,0.00,0,Wunderground v.1.15,2013-03-24 00:34:00,
2013-03-23 19:39:00,31.9,24.9,30.11,East,96,2.0,7.0,75,0.00,,,0.00,0,Wunderground v.1.15,2013-03-24 00:39:00,
2013-03-23 19:44:00,31.8,25.1,30.11,East,82,2.0,4.0,76,0.00,,,0.00,0,Wunderground v.1.15,2013-03-24 00:44:00,
2013-03-23 19:51:00,31.8,25.1,30.11,East,98,1.0,5.0,76,0.00,,,0.00,0,Wunderground v.1.15,2013-03-24 00:51:00,
2013-03-23 19:56:00,31.7,25.0,30.11,East,90,0.0,2.0,76,0.00,,,0.00,0,Wunderground v.1.15,2013-03-24 00:56:00,
2013-03-23 20:04:00,31.6,24.9,30.11,ESE,103,0.0,2.0,76,0.00,,,0.00,0,Wunderground v.1.15,2013-03-24 01:04:00,
2013-03-23 20:10:00,31.4,24.4,30.11,East,88,1.0,4.0,75,0.00,,,0.00,0,Wunderground v.1.15,2013-03-24 01:10:00,
2013-03-23 20:15:00,31.4,24.4,30.12,ENE,64,1.0,6.0,75,0.00,,,0.00,0,Wunderground v.1.15,2013-03-24 01:15:00,
2013-03-23 20:20:00,31.3,24.6,30.12,East,89,1.0,1.0,76,0.00,,,0.00,0,Wunderground v.1.15,2013-03-24 01:20:00,
2013-03-23 20:26:00,31.2,24.5,30.12,ESE,119,0.0,3.0,76,0.00,,,0.00,0,Wunderground v.1.15,2013-03-24 01:26:00,
2013-03-23 20:32:00,31.1,24.4,30.12,ESE,118,1.0,3.0,76,0.00,,,0.00,0,Wunderground v.1.15,2013-03-24 01:32:00,
2013-03-23 20:39:00,31.1,24.4,30.12,SE,132,1.0,3.0,76,0.00,,,0.00,0,Wunderground v.1.15,2013-03-24 01:39:00,
2013-03-23 20:44:00,31.0,24.3,30.13,ESE,119,1.0,6.0,76,0.00,,,0.00,0,Wunderground v.1.15,2013-03-24 01:44:00,
2013-03-23 20:50:00,30.9,24.2,30.13,East,86,1.0,2.0,76,0.00,,,0.00,0,Wunderground v.1.15,2013-03-24 01:50:00,
2013-03-23 20:55:00,30.9,24.5,30.13,East,81,1.0,3.0,77,0.00,,,0.00,0,Wunderground v.1.15,2013-03-24 01:55:00,
2013-03-23 21:00:00,30.8,24.4,30.13,ENE,71,0.0,1.0,77,0.00,,,0.00,0,Wunderground v.1.15,2013-03-24 02:00:00,
2013-03-23 21:07:00,30.7,24.3,30.13,East,94,1.0,3.0,77,0.00,,,0.00,0,Wunderground v.1.15,2013-03-24 02:07:00,
2013-03-23 21:14:00,30.7,24.3,30.13,East,86,1.0,3.0,77,0.00,,,0.00,0,Wunderground v.1.15,2013-03-24 02:14:00,
2013-03-23 21:19:00,30.7,24.3,30.13,East,86,1.0,3.0,77,0.00,,,0.00,0,Wunderground v.1.15,2013-03-24 02:19:00,
2013-03-23 21:25:00,30.6,24.2,30.13,East,86,0.0,1.0,77,0.00,,,0.00,0,Wunderground v.1.15,2013-03-24 02:25:00,
2013-03-23 21:30:00,30.5,24.5,30.12,East,86,0.0,1.0,78,0.00,,,0.00,0,Wunderground v.1.15,2013-03-24 02:30:00,
2013-03-23 21:35:00,30.5,24.5,30.12,East,86,0.0,1.0,78,0.00,,,0.00,0,Wunderground v.1.15,2013-03-24 02:35:00,
2013-03-23 21:41:00,30.4,24.4,30.12,East,86,0.0,2.0,78,0.00,,,0.00,0,Wunderground v.1.15,2013-03-24 02:41:00,
2013-03-23 21:50:00,30.3,24.3,30.12,ENE,57,1.0,4.0,78,0.00,,,0.00,0,Wunderground v.1.15,2013-03-24 02:50:00,
2013-03-23 21:55:00,30.2,24.2,30.12,NNE,26,2.0,4.0,78,0.00,,,0.00,0,Wunderground v.1.15,2013-03-24 02:55:00,
2013-03-23 22:01:00,30.2,24.2,30.10,ENE,66,4.0,8.0,78,0.00,,,0.00,0,Wunderground v.1.15,2013-03-24 03:01:00,
2013-03-23 22:06:00,30.2,24.2,30.10,NE,43,4.0,10.0,78,0.00,,,0.00,0,Wunderground v.1.15,2013-03-24 03:06:00,
2013-03-23 22:12:00,30.3,24.3,30.10,ENE,63,3.0,6.0,78,0.00,,,0.00,0,Wunderground v.1.15,2013-03-24 03:12:00,
2013-03-23 22:19:00,30.4,24.1,30.10,NE,47,2.0,6.0,77,0.00,,,0.00,0,Wunderground v.1.15,2013-03-24 03:19:00,
2013-03-23 22:25:00,30.5,24.1,30.10,NE,44,2.0,7.0,77,0.00,,,0.00,0,Wunderground v.1.15,2013-03-24 03:25:00,
2013-03-23 22:30:00,30.5,24.1,30.10,ENE,64,2.0,5.0,77,0.00,,,0.00,0,Wunderground v.1.15,2013-03-24 03:30:00,
2013-03-23 22:36:00,30.5,23.8,30.10,ENE,57,2.0,7.0,76,0.00,,,0.00,0,Wunderground v.1.15,2013-03-24 03:36:00,
2013-03-23 22:44:00,30.4,23.7,30.10,NE,36,1.0,3.0,76,0.00,,,0.00,0,Wunderground v.1.15,2013-03-24 03:44:00,
2013-03-23 22:50:00,30.3,23.6,30.10,NNE,13,1.0,3.0,76,0.00,,,0.00,0,Wunderground v.1.15,2013-03-24 03:50:00,
2013-03-23 22:55:00,30.3,23.0,30.10,NNE,26,2.0,9.0,74,0.00,,,0.00,0,Wunderground v.1.15,2013-03-24 03:55:00,
2013-03-23 23:00:00,30.3,22.7,30.10,ENE,61,3.0,3.0,73,0.00,,,0.00,0,Wunderground v.1.15,2013-03-24 04:00:00,
2013-03-23 23:01:00,30.3,22.7,30.10,ENE,61,3.0,3.0,73,0.00,,,0.00,0,Wunderground v.1.15,2013-03-24 04:01:00,
2013-03-23 23:04:00,30.4,22.8,30.10,ENE,61,2.0,3.0,73,0.00,,,0.00,0,Wunderground v.1.15,2013-03-24 04:04:00,
2013-03-23 23:13:00,30.3,22.4,30.10,NE,43,2.0,2.0,72,0.00,,,0.00,0,Wunderground v.1.15,2013-03-24 04:13:00,
2013-03-23 23:20:00,30.3,22.0,30.10,NE,41,3.0,6.0,71,0.00,,,0.00,0,Wunderground v.1.15,2013-03-24 04:20:00,
2013-03-23 23:22:00,30.3,22.0,30.10,NNE,23,3.0,6.0,71,0.00,,,0.00,0,Wunderground v.1.15,2013-03-24 04:22:00,
2013-03-23 23:29:00,30.2,21.6,30.10,NE,36,3.0,4.0,70,0.00,,,0.00,0,Wunderground v.1.15,2013-03-24 04:29:00,
2013-03-23 23:35:00,30.2,21.9,30.10,NNE,19,3.0,3.0,71,0.00,,,0.00,0,Wunderground v.1.15,2013-03-24 04:35:00,
2013-03-23 23:40:00,30.1,21.8,30.10,NE,34,3.0,7.0,71,0.00,,,0.00,0,Wunderground v.1.15,2013-03-24 04:40:00,
2013-03-23 23:45:00,30.1,21.8,30.10,North,11,3.0,5.0,71,0.00,,,0.00,0,Wunderground v.1.15,2013-03-24 04:45:00,
2013-03-23 23:51:00,30.1,21.5,30.10,NNE,22,3.0,7.0,70,0.00,,,0.00,0,Wunderground v.1.15,2013-03-24 04:51:00,
2013-03-23 23:57:00,30.0,21.7,30.10,NNE,21,3.0,3.0,71,0.00,,,0.00,0,Wunderground v.1.15,2013-03-24 04:57:00,